Time;durP1;ratioP1;P1;durP2;ratioP2;P2;SDS_P1;SDS_P2;PMS_P1;PMS_P2;Temp;Humidity;BMP_temperature;BMP_pressure;BME280_temperature;BME280_humidity;BME280_pressure;Samples;Min_cycle;Max_cycle;Signal;HPM_P1;HPM_P2
2023/09/24 00:02:51;;;;;;;6.50;2.40;;;;;;;12.51;86.17;99211.38;226146;1278;22567;-73
2023/09/24 00:07:53;;;;;;;3.10;2.70;;;;;;;12.48;86.43;99213.71;226070;1277;137908;-73
2023/09/24 00:12:56;;;;;;;3.30;2.40;;;;;;;12.45;86.24;99218.67;225803;1280;139051;-72
2023/09/24 00:17:59;;;;;;;3.70;3.00;;;;;;;12.41;86.37;99218.42;225842;1280;138285;-72
2023/09/24 00:23:01;;;;;;;3.90;2.80;;;;;;;12.38;86.37;99209.16;225880;1280;138277;-72
2023/09/24 00:28:04;;;;;;;3.20;2.80;;;;;;;12.32;86.52;99211.73;225791;1279;138248;-72
2023/09/24 00:33:07;;;;;;;5.30;2.70;;;;;;;12.29;86.46;99208.48;225907;1280;22553;-72
2023/09/24 00:38:09;;;;;;;3.90;3.00;;;;;;;12.24;86.61;99209.53;225740;1280;138237;-72
2023/09/24 00:43:26;;;;;;;3.80;3.00;;;;;;;12.19;86.50;99224.16;226038;1276;138033;-72
2023/09/24 00:48:29;;;;;;;3.90;2.90;;;;;;;12.14;86.67;99235.42;225904;1279;138412;-73
2023/09/24 00:53:34;;;;;;;3.60;3.10;;;;;;;12.08;86.77;99240.12;226151;1279;138210;-72
2023/09/24 00:58:37;;;;;;;3.20;2.90;;;;;;;12.05;86.92;99251.35;225951;1263;138365;-73
2023/09/24 01:03:40;;;;;;;4.50;2.80;;;;;;;12.00;86.98;99254.34;225904;1279;138798;-72
2023/09/24 01:08:43;;;;;;;3.30;3.00;;;;;;;11.94;86.85;99264.07;226161;1277;22540;-72
2023/09/24 01:13:45;;;;;;;3.50;3.10;;;;;;;11.89;87.09;99279.03;226015;1277;137920;-72
2023/09/24 01:18:49;;;;;;;3.70;3.10;;;;;;;11.85;87.09;99296.10;226049;1273;139004;-73
2023/09/24 01:23:51;;;;;;;3.30;3.00;;;;;;;11.85;87.27;99299.15;225918;1274;138433;-73
2023/09/24 01:28:53;;;;;;;4.50;3.10;;;;;;;11.87;87.37;99298.89;225758;1280;138279;-73
2023/09/24 01:33:55;;;;;;;4.80;3.30;;;;;;;11.89;87.28;99293.44;225920;1277;138406;-73
2023/09/24 01:38:57;;;;;;;4.10;3.30;;;;;;;11.89;87.35;99287.42;225835;1280;252905;-73
2023/09/24 01:43:59;;;;;;;4.60;3.50;;;;;;;11.89;87.19;99287.83;225778;1280;138350;-73
2023/09/24 01:49:02;;;;;;;4.90;3.90;;;;;;;11.87;87.13;99287.89;225981;1280;138034;-73
2023/09/24 01:54:04;;;;;;;4.80;3.50;;;;;;;11.86;87.11;99301.95;226067;1277;138328;-73
2023/09/24 01:59:07;;;;;;;4.10;3.80;;;;;;;11.87;87.17;99303.49;226020;1279;138184;-73
2023/09/24 02:04:09;;;;;;;4.20;3.50;;;;;;;11.88;87.17;99311.60;225894;1273;138181;-73
2023/09/24 02:09:14;;;;;;;4.50;3.50;;;;;;;11.89;87.24;99314.63;225977;1279;22533;-73
2023/09/24 02:14:16;;;;;;;4.10;3.40;;;;;;;11.91;87.15;99312.37;225784;1278;138186;-72
2023/09/24 02:19:21;;;;;;;5.60;3.70;;;;;;;11.91;87.16;99315.64;225808;1279;138405;-73
2023/09/24 02:24:23;;;;;;;3.80;3.40;;;;;;;11.91;87.11;99325.90;225962;1276;138197;-73
2023/09/24 02:29:25;;;;;;;5.50;3.50;;;;;;;11.92;87.14;99330.40;225801;1280;138267;-73
2023/09/24 02:34:29;;;;;;;3.50;3.20;;;;;;;11.92;87.08;99342.14;225832;1280;138333;-73
2023/09/24 02:39:31;;;;;;;4.60;3.20;;;;;;;11.92;87.06;99351.17;226018;1279;138457;-73
2023/09/24 02:44:34;;;;;;;4.30;3.20;;;;;;;11.92;87.07;99353.13;225955;1273;24917;-73
2023/09/24 02:49:36;;;;;;;5.90;3.80;;;;;;;11.91;87.01;99360.98;225914;1277;138939;-73
2023/09/24 02:54:38;;;;;;;4.10;3.50;;;;;;;11.90;87.06;99361.45;225926;1276;138283;-74
2023/09/24 02:59:40;;;;;;;4.30;3.90;;;;;;;11.90;87.15;99353.55;225952;1276;138369;-73
2023/09/24 03:04:42;;;;;;;4.30;3.90;;;;;;;11.89;86.99;99350.11;225978;1273;138246;-73
2023/09/24 03:09:44;;;;;;;4.20;3.80;;;;;;;11.89;87.03;99356.84;225942;1272;138230;-73
2023/09/24 03:14:46;;;;;;;6.20;4.00;;;;;;;11.87;87.04;99372.78;225942;1276;22547;-73
2023/09/24 03:19:49;;;;;;;5.60;3.50;;;;;;;11.86;86.99;99375.99;225701;1280;138123;-73
2023/09/24 03:24:51;;;;;;;4.70;3.60;;;;;;;11.85;87.10;99379.04;225995;1276;138128;-73
2023/09/24 03:29:53;;;;;;;3.80;3.30;;;;;;;11.85;87.19;99389.43;225887;1279;138225;-73
2023/09/24 03:34:56;;;;;;;4.40;3.60;;;;;;;11.84;87.07;99389.57;225858;1277;138211;-73
2023/09/24 03:39:58;;;;;;;5.30;3.80;;;;;;;11.83;87.07;99397.73;225989;1275;138477;-73
2023/09/24 03:45:00;;;;;;;5.00;3.60;;;;;;;11.82;87.15;99398.90;225954;1278;22546;-73
2023/09/24 03:50:05;;;;;;;4.40;4.00;;;;;;;11.78;87.05;99402.63;225956;1277;138106;-73
2023/09/24 03:55:08;;;;;;;5.00;4.20;;;;;;;11.78;87.10;99412.27;225993;1277;138097;-73
2023/09/24 04:00:15;;;;;;;5.00;4.30;;;;;;;11.76;87.15;99419.00;225958;1279;138421;-73
2023/09/24 04:05:21;;;;;;;5.90;4.50;;;;;;;11.74;87.04;99420.89;225920;1276;139279;-71
2023/09/24 04:10:27;;;;;;;5.50;4.70;;;;;;;11.71;87.08;99429.94;225950;1275;138216;-72
2023/09/24 04:15:31;;;;;;;4.60;4.20;;;;;;;11.68;87.17;99431.76;225743;1275;139927;-72
2023/09/24 04:20:33;;;;;;;6.70;5.10;;;;;;;11.65;87.23;99440.38;226053;1276;23020;-72
2023/09/24 04:25:37;;;;;;;5.60;5.20;;;;;;;11.61;87.30;99448.93;225805;1277;138027;-71
2023/09/24 04:30:39;;;;;;;5.60;5.10;;;;;;;11.60;87.32;99448.02;225968;1275;138426;-72
2023/09/24 04:35:41;;;;;;;5.10;4.70;;;;;;;11.57;87.52;99448.44;225942;1276;138370;-72
2023/09/24 04:40:43;;;;;;;6.00;5.40;;;;;;;11.55;87.51;99455.98;225984;1276;139227;-72
2023/09/24 04:45:46;;;;;;;6.20;5.40;;;;;;;11.53;87.58;99466.61;225807;1276;138369;-72
2023/09/24 04:50:48;;;;;;;9.20;5.60;;;;;;;11.51;87.56;99462.42;225832;1276;22588;-72
2023/09/24 04:55:50;;;;;;;6.00;5.40;;;;;;;11.50;87.55;99472.91;225978;1276;137845;-73
2023/09/24 05:01:02;;;;;;;5.70;5.20;;;;;;;11.51;87.61;99484.89;225941;1278;138096;-72
2023/09/24 05:06:05;;;;;;;6.50;5.00;;;;;;;11.51;87.53;99492.59;225923;1272;138439;-73
2023/09/24 05:11:10;;;;;;;5.30;4.80;;;;;;;11.53;87.43;99503.34;225875;1280;138242;-73
2023/09/24 05:16:12;;;;;;;6.60;4.80;;;;;;;11.57;87.62;99498.10;225911;1278;138489;-72
2023/09/24 05:21:17;;;;;;;5.50;5.00;;;;;;;11.62;87.41;99513.58;226018;1279;22559;-72
2023/09/24 05:26:19;;;;;;;6.30;5.30;;;;;;;11.68;87.56;99517.98;225837;1273;138029;-72
2023/09/24 05:31:22;;;;;;;6.00;5.40;;;;;;;11.75;87.37;99512.02;225812;1279;138206;-72
2023/09/24 05:36:24;;;;;;;6.60;5.80;;;;;;;11.82;87.55;99509.53;225830;1277;138904;-72
2023/09/24 05:41:27;;;;;;;5.40;4.90;;;;;;;11.88;87.45;99499.48;225824;1277;139647;-73
2023/09/24 05:46:29;;;;;;;6.30;4.60;;;;;;;11.94;87.20;99505.48;225832;1274;138546;-72
2023/09/24 05:51:31;;;;;;;5.50;4.10;;;;;;;11.97;87.01;99514.97;225862;1273;138216;-72
2023/09/24 05:56:33;;;;;;;5.10;4.50;;;;;;;12.04;86.69;99518.27;225976;1278;22557;-72
2023/09/24 06:01:35;;;;;;;6.70;4.00;;;;;;;12.11;86.70;99520.53;225784;1276;138050;-73
2023/09/24 06:06:37;;;;;;;5.20;4.10;;;;;;;12.21;86.62;99521.69;225814;1275;138424;-72
2023/09/24 06:11:39;;;;;;;6.30;4.30;;;;;;;12.33;86.64;99521.84;225871;1278;138258;-74
2023/09/24 06:16:42;;;;;;;4.50;4.10;;;;;;;12.44;86.35;99521.44;225872;1278;139255;-73
2023/09/24 06:21:44;;;;;;;5.70;3.90;;;;;;;12.52;86.18;99532.98;225717;1278;138214;-72
2023/09/24 06:26:46;;;;;;;4.40;3.90;;;;;;;12.62;86.10;99553.79;225732;1275;22559;-72
2023/09/24 06:31:50;;;;;;;4.80;3.90;;;;;;;12.73;86.01;99561.86;225809;1278;137953;-72
2023/09/24 06:36:52;;;;;;;4.10;3.60;;;;;;;12.81;85.95;99561.75;225894;1276;138303;-72
2023/09/24 06:41:54;;;;;;;5.50;3.80;;;;;;;12.88;85.68;99567.02;225869;1275;138354;-72
2023/09/24 06:46:57;;;;;;;3.90;3.30;;;;;;;12.95;85.48;99558.94;225918;1275;138229;-74
2023/09/24 06:51:59;;;;;;;3.50;3.20;;;;;;;13.01;84.92;99555.23;225854;1276;138271;-72
2023/09/24 06:57:01;;;;;;;3.60;3.30;;;;;;;13.03;84.55;99573.15;225968;1280;22537;-74
2023/09/24 07:02:03;;;;;;;5.10;3.20;;;;;;;13.08;84.54;99588.85;225732;1280;138110;-73
2023/09/24 07:07:07;;;;;;;3.90;3.40;;;;;;;13.17;84.65;99590.80;225777;1279;138507;-72
2023/09/24 07:12:09;;;;;;;3.50;3.10;;;;;;;13.32;84.48;99592.34;225673;1275;138343;-73
2023/09/24 07:17:12;;;;;;;4.80;3.40;;;;;;;13.49;84.37;99590.63;225883;1272;137820;-73
2023/09/24 07:22:14;;;;;;;3.80;3.40;;;;;;;13.70;84.15;99598.70;225831;1273;138242;-73
2023/09/24 07:27:16;;;;;;;3.30;3.00;;;;;;;13.94;84.07;99612.40;225941;1279;22537;-73
2023/09/24 07:32:18;;;;;;;3.80;3.50;;;;;;;14.14;83.28;99619.23;225631;1280;138079;-72
2023/09/24 07:37:20;;;;;;;5.60;3.30;;;;;;;14.34;82.82;99616.55;225725;1259;139422;-73
2023/09/24 07:42:22;;;;;;;4.10;3.70;;;;;;;14.53;82.86;99620.08;225574;1279;138175;-73
2023/09/24 07:47:24;;;;;;;4.40;3.60;;;;;;;14.70;82.60;99629.26;225880;1276;138278;-72
2023/09/24 07:52:25;;;;;;;4.10;3.70;;;;;;;14.86;82.36;99634.45;225763;1273;138280;-73
2023/09/24 07:57:27;;;;;;;4.00;3.40;;;;;;;15.05;82.10;99638.63;225792;1273;138397;-72
2023/09/24 08:02:30;;;;;;;3.80;3.30;;;;;;;15.20;81.79;99642.48;225901;1276;22565;-73
2023/09/24 08:07:36;;;;;;;3.20;2.90;;;;;;;15.38;81.50;99656.21;225827;1277;137977;-74
2023/09/24 08:12:39;;;;;;;5.00;3.20;;;;;;;15.57;80.81;99663.23;225887;1275;138965;-74
2023/09/24 08:17:41;;;;;;;4.30;3.00;;;;;;;15.75;80.68;99661.08;225797;1275;138237;-74
2023/09/24 08:22:43;;;;;;;4.20;2.70;;;;;;;15.97;80.20;99671.23;225999;1275;138185;-73
2023/09/24 08:27:45;;;;;;;3.00;2.70;;;;;;;16.16;80.14;99672.75;225835;1278;138424;-75
2023/09/24 08:32:49;;;;;;;4.00;2.80;;;;;;;16.33;79.44;99673.60;225978;1277;22547;-75
2023/09/24 08:37:52;;;;;;;4.30;3.30;;;;;;;16.33;79.11;99671.55;225884;1275;137825;-74
2023/09/24 08:42:56;;;;;;;3.80;2.90;;;;;;;16.38;78.69;99676.77;225758;1275;139526;-73
2023/09/24 08:48:00;;;;;;;3.30;2.70;;;;;;;16.50;78.54;99688.48;225697;1280;138430;-74
2023/09/24 08:53:05;;;;;;;3.20;2.50;;;;;;;16.70;78.07;99688.65;225956;1278;138631;-74
2023/09/24 08:58:07;;;;;;;3.00;2.60;;;;;;;16.92;78.09;99688.48;225825;1276;138257;-74
2023/09/24 09:03:09;;;;;;;3.90;2.60;;;;;;;17.21;77.45;99696.20;226104;1273;22573;-74
2023/09/24 09:08:11;;;;;;;2.30;2.00;;;;;;;17.41;76.81;99702.73;225951;1275;138007;-74
2023/09/24 09:13:21;;;;;;;2.80;2.00;;;;;;;17.56;75.90;99702.61;225631;1280;138285;-73
2023/09/24 09:18:25;;;;;;;2.30;2.10;;;;;;;17.67;75.67;99695.08;225631;1279;138794;-73
2023/09/24 09:23:35;;;;;;;3.00;2.10;;;;;;;17.73;74.81;99688.81;225760;1279;138218;-73
2023/09/24 09:28:40;;;;;;;2.60;2.40;;;;;;;17.73;74.53;99686.76;225696;1280;138270;-73
2023/09/24 09:33:44;;;;;;;2.50;2.30;;;;;;;17.82;74.89;99678.86;225770;1278;138762;-74
2023/09/24 09:38:46;;;;;;;2.70;2.50;;;;;;;17.94;74.96;99675.10;225937;1275;22598;-73
2023/09/24 09:43:52;;;;;;;2.40;2.20;;;;;;;18.01;74.72;99663.38;225684;1279;138899;-73
2023/09/24 09:49:05;;;;;;;4.20;2.60;;;;;;;18.03;74.40;99662.83;225939;1274;138331;-72
2023/09/24 09:54:11;;;;;;;2.60;2.30;;;;;;;17.97;74.43;99661.95;225711;1279;138313;-73
2023/09/24 09:59:14;;;;;;;2.30;2.10;;;;;;;18.07;74.60;99655.48;225953;1279;138868;-73
2023/09/24 10:04:17;;;;;;;2.50;2.30;;;;;;;18.25;74.03;99655.65;225741;1280;138371;-73
2023/09/24 10:09:26;;;;;;;4.90;2.20;;;;;;;18.44;73.67;99654.17;226157;1272;22612;-74
2023/09/24 10:14:33;;;;;;;3.30;2.50;;;;;;;18.61;72.91;99648.13;226125;1272;22554;-75
2023/09/24 10:20:09;;;;;;;4.00;2.20;;;;;;;18.64;72.57;99651.83;225911;1279;138229;-74
2023/09/24 10:25:39;;;;;;;3.50;2.20;;;;;;;18.78;72.68;99646.38;225971;1275;138411;-74
2023/09/24 10:31:03;;;;;;;3.00;2.60;;;;;;;18.80;71.89;99654.86;225763;1278;138406;-74
2023/09/24 10:36:21;;;;;;;2.20;2.00;;;;;;;18.81;71.69;99667.50;225739;1279;137798;-74
2023/09/24 10:41:23;;;;;;;2.80;2.00;;;;;;;18.76;71.74;99673.71;225909;1278;137682;-73
2023/09/24 10:46:26;;;;;;;2.00;1.70;;;;;;;18.75;71.65;99675.61;225744;1280;137759;-74
2023/09/24 10:51:29;;;;;;;3.30;1.80;;;;;;;18.72;71.35;99671.44;225975;1277;138372;-75
2023/09/24 10:56:31;;;;;;;2.40;2.20;;;;;;;18.80;71.63;99678.62;225891;1275;25459;-74
2023/09/24 11:01:33;;;;;;;2.80;2.00;;;;;;;18.94;71.54;99678.95;225981;1276;138061;-74
2023/09/24 11:06:36;;;;;;;2.00;1.80;;;;;;;19.00;71.29;99682.58;225763;1275;138732;-73
2023/09/24 11:11:38;;;;;;;2.20;1.60;;;;;;;18.98;70.38;99680.80;225763;1279;138222;-73
2023/09/24 11:16:41;;;;;;;2.40;1.70;;;;;;;18.86;69.85;99680.55;225904;1278;138083;-72
2023/09/24 11:21:43;;;;;;;2.10;1.60;;;;;;;18.76;69.79;99683.52;225821;1279;138347;-73
2023/09/24 11:26:45;;;;;;;2.60;1.30;;;;;;;18.71;69.57;99687.30;225989;1278;23293;-73
2023/09/24 11:31:47;;;;;;;1.70;1.50;;;;;;;18.68;69.01;99686.92;225817;1275;138372;-73
2023/09/24 11:36:55;;;;;;;1.50;1.40;;;;;;;18.61;68.70;99679.64;225949;1279;138355;-74
2023/09/24 11:41:57;;;;;;;1.30;1.20;;;;;;;18.67;69.03;99677.25;225958;1278;137466;-74
2023/09/24 11:46:59;;;;;;;1.80;1.50;;;;;;;18.77;69.22;99676.91;226038;1276;137610;-73
2023/09/24 11:52:09;;;;;;;2.90;1.30;;;;;;;18.82;69.24;99673.25;226025;1275;139208;-74
2023/09/24 11:57:11;;;;;;;2.20;1.30;;;;;;;18.87;68.81;99674.23;225946;1275;22540;-73
2023/09/24 12:02:13;;;;;;;1.60;1.30;;;;;;;18.86;68.31;99666.70;225772;1259;137719;-73
2023/09/24 12:07:15;;;;;;;2.50;1.40;;;;;;;18.88;68.79;99671.59;225963;1277;137916;-73
2023/09/24 12:12:17;;;;;;;2.50;1.70;;;;;;;18.94;68.50;99670.63;225886;1278;137783;-73
2023/09/24 12:17:21;;;;;;;1.50;1.40;;;;;;;18.98;68.16;99666.15;225999;1280;137605;-72
2023/09/24 12:22:23;;;;;;;2.30;1.60;;;;;;;19.04;68.31;99667.07;225968;1256;137729;-74
2023/09/24 12:27:29;;;;;;;1.70;1.60;;;;;;;19.12;67.88;99665.32;225908;1264;22539;-72
2023/09/24 12:32:32;;;;;;;1.50;1.30;;;;;;;19.19;67.90;99663.86;226200;1278;22547;-73
2023/09/24 12:37:39;;;;;;;1.70;1.60;;;;;;;19.29;67.69;99656.71;225843;1278;137429;-75
2023/09/24 12:42:42;;;;;;;2.80;1.30;;;;;;;19.36;67.42;99651.68;225936;1280;138449;-73
2023/09/24 12:47:44;;;;;;;2.40;1.40;;;;;;;19.44;67.01;99653.83;225702;1280;137614;-72
2023/09/24 12:52:46;;;;;;;2.00;1.40;;;;;;;19.42;66.75;99650.94;225807;1278;137512;-73
2023/09/24 12:57:48;;;;;;;1.30;1.20;;;;;;;19.38;66.32;99651.00;226059;1272;137950;-74
2023/09/24 13:02:51;;;;;;;1.40;1.20;;;;;;;19.32;66.13;99651.77;226189;1275;22646;-72
2023/09/24 13:07:54;;;;;;;2.40;1.30;;;;;;;19.23;66.07;99655.80;225856;1279;137289;-73
2023/09/24 13:12:58;;;;;;;1.30;1.10;;;;;;;19.20;65.68;99664.11;226063;1275;137356;-73
2023/09/24 13:18:01;;;;;;;1.50;1.40;;;;;;;19.06;65.19;99666.76;225695;1257;137720;-73
2023/09/24 13:23:03;;;;;;;1.90;1.30;;;;;;;18.89;65.19;99668.90;225973;1277;137569;-73
2023/09/24 13:28:05;;;;;;;1.20;1.10;;;;;;;18.66;65.25;99669.13;225896;1279;137659;-72
2023/09/24 13:33:07;;;;;;;1.30;1.20;;;;;;;18.49;65.70;99673.52;226139;1276;22586;-73
2023/09/24 13:38:10;;;;;;;1.30;1.00;;;;;;;18.54;66.14;99676.63;225824;1278;137311;-73
2023/09/24 13:43:12;;;;;;;2.60;0.90;;;;;;;18.70;66.18;99679.48;225828;1280;168336;-73
2023/09/24 13:48:14;;;;;;;1.90;1.30;;;;;;;18.86;65.31;99679.88;225767;1280;138407;-73
2023/09/24 13:53:16;;;;;;;1.20;1.10;;;;;;;18.80;65.15;99686.38;225848;1280;137813;-74
2023/09/24 13:58:18;;;;;;;1.40;1.20;;;;;;;18.70;65.24;99689.96;225704;1280;137829;-73
2023/09/24 14:03:21;;;;;;;1.20;1.10;;;;;;;18.67;65.53;99678.12;226152;1278;22531;-73
2023/09/24 14:13:46;;;;;;;1.90;1.70;;;;;;;18.49;65.68;99666.82;225787;1280;136747;-74
2023/09/24 14:18:49;;;;;;;2.20;1.70;;;;;;;18.55;66.29;99652.95;225902;1275;137662;-73
2023/09/24 14:23:51;;;;;;;2.80;1.60;;;;;;;18.64;66.35;99661.21;225962;1278;137540;-73
2023/09/24 14:28:53;;;;;;;1.50;1.40;;;;;;;18.58;65.95;99666.11;225874;1280;137682;-73
2023/09/24 14:33:55;;;;;;;3.90;1.50;;;;;;;18.42;66.03;99671.68;225839;1278;138459;-73
2023/09/24 14:39:02;;;;;;;1.30;1.20;;;;;;;18.23;65.42;99677.65;226121;1277;22671;-74
2023/09/24 14:44:08;;;;;;;1.30;1.10;;;;;;;17.97;65.41;99678.95;225980;1278;137593;-73
2023/09/24 14:49:11;;;;;;;3.00;1.50;;;;;;;17.80;65.67;99684.96;226016;1280;137666;-74
2023/09/24 14:54:14;;;;;;;1.50;1.30;;;;;;;17.67;65.63;99685.58;225708;1278;137532;-73
2023/09/24 14:59:16;;;;;;;1.80;1.40;;;;;;;17.53;65.94;99683.26;225905;1278;137571;-73
2023/09/24 15:04:18;;;;;;;1.60;1.20;;;;;;;17.32;66.00;99686.28;225825;1262;137872;-73
2023/09/24 15:09:20;;;;;;;1.20;1.10;;;;;;;17.15;66.22;99685.09;226047;1280;25409;-73
2023/09/24 15:14:23;;;;;;;1.80;1.10;;;;;;;17.05;66.48;99680.99;225739;1280;138494;-73
2023/09/24 15:19:25;;;;;;;2.30;1.20;;;;;;;17.01;66.70;99678.50;225977;1278;138976;-73
2023/09/24 15:24:27;;;;;;;2.10;1.30;;;;;;;17.02;66.84;99680.80;225844;1278;138773;-73
2023/09/24 15:29:29;;;;;;;1.60;1.50;;;;;;;17.06;66.99;99676.06;225862;1278;138508;-73
2023/09/24 15:34:31;;;;;;;1.40;1.30;;;;;;;17.10;67.02;99673.87;225799;1280;138390;-73
2023/09/24 15:39:33;;;;;;;2.90;1.40;;;;;;;17.12;66.84;99677.19;225777;1279;138376;-74
2023/09/24 15:44:36;;;;;;;2.10;1.70;;;;;;;17.13;67.16;99679.21;225981;1278;23434;-73
2023/09/24 15:49:38;;;;;;;2.10;1.70;;;;;;;17.12;67.11;99682.45;226030;1279;137950;-73
2023/09/24 15:54:40;;;;;;;2.10;2.00;;;;;;;17.09;67.16;99679.30;225972;1278;138453;-73
2023/09/24 15:59:42;;;;;;;2.30;1.60;;;;;;;17.05;67.37;99687.45;225678;1279;138437;-73
2023/09/24 16:04:44;;;;;;;3.40;1.70;;;;;;;16.98;67.62;99684.61;225841;1280;138232;-73
2023/09/24 16:09:46;;;;;;;1.70;1.60;;;;;;;16.88;67.66;99696.82;225756;1279;138346;-73
2023/09/24 16:14:48;;;;;;;2.20;1.70;;;;;;;16.79;67.96;99702.77;225906;1278;22538;-73
2023/09/24 16:19:50;;;;;;;2.20;1.80;;;;;;;16.72;68.44;99709.88;225828;1278;139183;-73
2023/09/24 16:24:53;;;;;;;3.50;1.90;;;;;;;16.63;68.61;99716.59;226019;1278;138406;-73
2023/09/24 16:29:55;;;;;;;4.00;1.70;;;;;;;16.52;68.66;99719.88;225666;1280;138321;-73
2023/09/24 16:34:57;;;;;;;2.50;2.00;;;;;;;16.42;68.95;99725.41;225788;1280;138834;-72
2023/09/24 16:40:00;;;;;;;2.10;1.90;;;;;;;16.35;69.56;99733.44;226041;1278;138059;-73
2023/09/24 16:45:03;;;;;;;1.80;1.60;;;;;;;16.28;69.75;99735.84;226146;1279;25466;-72
2023/09/24 16:50:05;;;;;;;2.10;1.90;;;;;;;16.20;69.90;99740.64;225844;1278;139030;-72
2023/09/24 16:55:07;;;;;;;2.60;2.20;;;;;;;16.14;70.22;99744.88;225702;1279;138029;-72
2023/09/24 17:00:10;;;;;;;2.50;2.30;;;;;;;16.09;70.41;99739.72;225744;1279;138218;-73
2023/09/24 17:05:13;;;;;;;2.20;2.00;;;;;;;16.04;70.72;99742.16;225788;1278;138446;-72
2023/09/24 17:10:15;;;;;;;3.00;2.40;;;;;;;16.00;71.00;99748.75;225802;1280;138348;-72
2023/09/24 17:15:18;;;;;;;2.80;2.10;;;;;;;15.96;71.21;99756.36;226151;1280;22606;-72
2023/09/24 17:20:24;;;;;;;3.10;2.50;;;;;;;15.90;71.44;99766.22;225996;1278;137845;-72
2023/09/24 17:25:26;;;;;;;2.50;2.10;;;;;;;15.84;71.79;99774.90;225970;1280;138047;-72
2023/09/24 17:30:28;;;;;;;2.90;2.50;;;;;;;15.81;71.86;99778.71;225798;1279;138985;-72
2023/09/24 17:35:30;;;;;;;2.90;2.50;;;;;;;15.77;71.93;99772.05;225801;1279;138546;-71
2023/09/24 17:40:32;;;;;;;5.20;2.70;;;;;;;15.73;72.37;99775.98;225790;1280;138552;-72
2023/09/24 17:45:36;;;;;;;2.80;2.50;;;;;;;15.68;72.23;99784.44;225844;1278;138810;-72
2023/09/24 17:50:38;;;;;;;5.70;2.70;;;;;;;15.67;72.56;99790.82;225899;1278;22612;-72
2023/09/24 17:55:39;;;;;;;2.80;2.60;;;;;;;15.66;72.82;99798.80;225833;1278;138142;-72
2023/09/24 18:00:41;;;;;;;2.80;2.50;;;;;;;15.64;73.04;99803.99;225940;1280;138848;-73
2023/09/24 18:05:47;;;;;;;2.70;2.50;;;;;;;15.60;73.36;99807.28;225877;1278;138222;-73
2023/09/24 18:10:49;;;;;;;3.10;2.80;;;;;;;15.58;73.38;99815.08;225669;1280;137801;-73
2023/09/24 18:15:57;;;;;;;4.60;2.70;;;;;;;15.57;73.31;99821.30;226036;1275;138414;-73
2023/09/24 18:21:01;;;;;;;2.70;2.50;;;;;;;15.55;73.51;99825.77;225817;1280;22544;-73
2023/09/24 18:26:04;;;;;;;3.50;2.80;;;;;;;15.51;73.70;99829.41;225992;1277;138001;-73
2023/09/24 18:31:05;;;;;;;4.80;2.80;;;;;;;15.46;73.86;99831.01;225949;1279;138496;-73
2023/09/24 18:36:07;;;;;;;3.20;2.90;;;;;;;15.43;73.94;99830.09;225661;1280;138356;-73
2023/09/24 18:41:15;;;;;;;3.30;2.90;;;;;;;15.40;74.02;99827.81;225822;1279;138405;-72
2023/09/24 18:46:16;;;;;;;5.70;3.90;;;;;;;15.36;74.20;99825.12;225851;1279;138636;-72
2023/09/24 18:51:18;;;;;;;4.70;3.40;;;;;;;15.31;74.60;99827.32;225812;1266;22540;-70
2023/09/24 18:56:23;;;;;;;7.50;3.50;;;;;;;15.27;74.78;99831.08;226015;1276;138716;-73
2023/09/24 19:01:26;;;;;;;5.80;3.80;;;;;;;15.23;74.87;99833.29;225883;1278;138693;-73
2023/09/24 19:06:28;;;;;;;4.40;3.80;;;;;;;15.22;74.79;99838.44;225655;1279;138348;-73
2023/09/24 19:11:31;;;;;;;5.80;3.80;;;;;;;15.21;75.07;99839.95;225823;1279;138356;-72
2023/09/24 19:16:33;;;;;;;5.20;3.40;;;;;;;15.20;75.42;99834.36;225959;1278;138356;-73
2023/09/24 19:21:35;;;;;;;5.70;4.00;;;;;;;15.20;75.39;99832.60;225942;1278;138428;-74
2023/09/24 19:26:39;;;;;;;4.90;3.40;;;;;;;15.21;75.54;99839.05;225819;1280;25394;-73
2023/09/24 19:31:41;;;;;;;5.00;3.50;;;;;;;15.22;75.84;99839.66;226063;1280;139371;-73
2023/09/24 19:36:43;;;;;;;3.80;3.40;;;;;;;15.23;75.79;99842.73;225775;1279;138788;-73
2023/09/24 19:41:46;;;;;;;4.80;3.70;;;;;;;15.22;75.65;99844.59;225948;1279;138427;-74
2023/09/24 19:46:50;;;;;;;5.30;4.10;;;;;;;15.20;75.83;99837.39;225905;1280;138702;-75
2023/09/24 19:51:53;;;;;;;4.90;3.70;;;;;;;15.17;75.94;99833.18;225948;1280;138493;-76
2023/09/24 19:56:55;;;;;;;4.40;4.00;;;;;;;15.17;76.18;99833.34;225823;1280;22568;-75
2023/09/24 20:01:57;;;;;;;4.80;3.90;;;;;;;15.15;76.30;99827.67;225749;1280;138104;-74
2023/09/24 20:07:02;;;;;;;6.00;3.60;;;;;;;15.14;76.10;99826.00;225899;1280;138443;-72
2023/09/24 20:12:04;;;;;;;4.20;3.80;;;;;;;15.12;76.43;99828.98;225790;1280;138444;-73
2023/09/24 20:17:06;;;;;;;6.00;4.10;;;;;;;15.13;76.27;99831.90;225807;1278;138418;-73
2023/09/24 20:22:08;;;;;;;5.00;3.90;;;;;;;15.13;76.38;99830.63;225780;1280;138529;-72
2023/09/24 20:27:11;;;;;;;5.10;3.80;;;;;;;15.11;76.50;99826.44;225853;1280;22554;-72
2023/09/24 20:32:12;;;;;;;6.20;3.90;;;;;;;15.09;76.83;99829.33;225767;1280;137984;-73
2023/09/24 20:37:14;;;;;;;5.80;3.70;;;;;;;15.10;76.63;99828.22;225804;1263;139034;-73
2023/09/24 20:42:16;;;;;;;5.80;4.50;;;;;;;15.08;76.64;99828.08;225814;1280;138630;-74
2023/09/24 20:47:20;;;;;;;4.90;4.40;;;;;;;15.08;76.98;99833.27;225988;1277;138411;-71
2023/09/24 20:52:22;;;;;;;7.40;4.40;;;;;;;15.09;76.69;99835.30;225917;1280;138343;-73
2023/09/24 20:57:24;;;;;;;4.70;4.30;;;;;;;15.10;76.77;99836.13;225895;1279;22550;-71
2023/09/24 21:02:26;;;;;;;5.10;4.60;;;;;;;15.11;76.86;99837.48;225932;1278;138050;-73
2023/09/24 21:07:36;;;;;;;5.40;3.70;;;;;;;15.07;76.81;99832.08;225788;1279;138243;-72
2023/09/24 21:12:40;;;;;;;4.50;3.90;;;;;;;15.02;76.94;99833.33;225794;1280;138497;-72
2023/09/24 21:17:41;;;;;;;5.20;4.00;;;;;;;14.97;76.84;99837.80;225768;1276;139540;-72
2023/09/24 21:22:43;;;;;;;5.00;4.20;;;;;;;14.92;77.18;99835.17;226014;1277;138489;-73
2023/09/24 21:27:45;;;;;;;5.80;4.60;;;;;;;14.89;77.53;99838.65;225744;1279;138577;-73
2023/09/24 21:32:47;;;;;;;4.60;4.20;;;;;;;14.87;77.34;99836.19;225914;1279;22550;-73
2023/09/24 21:37:50;;;;;;;7.50;4.30;;;;;;;14.86;77.49;99836.20;225745;1280;138010;-73
2023/09/24 21:42:52;;;;;;;5.50;4.20;;;;;;;14.85;77.52;99837.02;225773;1280;138295;-73
2023/09/24 21:47:54;;;;;;;6.30;3.90;;;;;;;14.83;77.75;99837.82;225729;1276;138608;-73
2023/09/24 21:52:56;;;;;;;5.50;4.10;;;;;;;14.80;77.59;99837.39;225960;1276;138567;-73
2023/09/24 21:57:58;;;;;;;4.80;4.00;;;;;;;14.79;78.01;99831.00;225686;1280;138447;-73
2023/09/24 22:03:00;;;;;;;6.20;4.10;;;;;;;14.82;77.96;99831.20;225914;1279;22579;-73
2023/09/24 22:08:02;;;;;;;7.80;4.00;;;;;;;14.84;78.10;99834.30;225883;1280;139152;-73
2023/09/24 22:13:04;;;;;;;5.00;3.80;;;;;;;14.83;78.05;99849.54;225736;1279;138014;-73
2023/09/24 22:18:06;;;;;;;5.70;3.80;;;;;;;14.84;78.05;99851.22;225742;1277;138212;-74
2023/09/24 22:23:08;;;;;;;4.70;4.00;;;;;;;14.83;78.31;99857.20;225651;1280;138440;-72
2023/09/24 22:28:10;;;;;;;4.60;3.30;;;;;;;14.82;78.20;99864.19;225803;1279;138249;-73
2023/09/24 22:33:12;;;;;;;6.90;4.00;;;;;;;14.81;78.16;99863.06;225884;1280;22555;-73
2023/09/24 22:38:14;;;;;;;4.60;3.90;;;;;;;14.80;78.35;99860.85;225770;1280;138509;-73
2023/09/24 22:43:17;;;;;;;7.70;3.60;;;;;;;14.79;78.51;99848.02;225814;1276;138253;-73
2023/09/24 22:48:28;;;;;;;6.20;4.00;;;;;;;14.79;78.75;99847.16;225824;1279;138287;-73
2023/09/24 22:53:30;;;;;;;6.50;4.20;;;;;;;14.77;78.73;99835.14;225844;1280;138572;-73
2023/09/24 22:58:32;;;;;;;5.90;4.40;;;;;;;14.75;78.63;99835.50;225608;1276;138265;-73
2023/09/24 23:03:35;;;;;;;8.90;5.40;;;;;;;14.73;78.90;99834.69;225853;1279;139253;-73
2023/09/24 23:08:37;;;;;;;7.20;6.50;;;;;;;14.73;78.79;99829.45;225762;1279;22563;-74
2023/09/24 23:13:40;;;;;;;9.70;7.90;;;;;;;14.73;78.85;99832.92;225952;1280;138927;-73
2023/09/24 23:18:42;;;;;;;8.20;7.40;;;;;;;14.75;79.25;99830.45;225620;1278;138766;-73
2023/09/24 23:23:44;;;;;;;8.40;7.40;;;;;;;14.76;79.07;99823.80;225816;1278;138282;-73